Time;durP1;ratioP1;P1;durP2;ratioP2;P2;SDS_P1;SDS_P2;PMS_P1;PMS_P2;Temp;Humidity;BMP_temperature;BMP_pressure;BME280_temperature;BME280_humidity;BME280_pressure;Samples;Min_cycle;Max_cycle;Signal;HPM_P1;HPM_P2
2021/09/18 00:02:21;;;;;;;8.13;7.43;;;11.50;99.90;;;12.18;92.56;97922.28;5144796;28;20200;-81
2021/09/18 00:04:54;;;;;;;7.80;7.05;;;11.40;99.90;;;12.16;93.34;97926.47;5146060;28;20227;-81
2021/09/18 00:07:28;;;;;;;7.50;6.90;;;11.50;99.90;;;12.17;93.04;97924.78;5149705;28;20345;-81
2021/09/18 00:10:04;;;;;;;7.28;6.78;;;11.40;99.90;;;12.13;92.78;97923.75;5153039;28;20231;-81
2021/09/18 00:12:37;;;;;;;7.28;6.70;;;11.40;99.90;;;12.12;93.51;97927.06;5151077;28;20588;-81
2021/09/18 00:15:11;;;;;;;7.50;6.80;;;11.40;99.90;;;12.07;92.68;97928.50;5147369;28;20287;-82
2021/09/18 00:17:44;;;;;;;8.00;7.32;;;11.30;99.90;;;12.04;92.78;97928.34;5147094;28;20200;-81
2021/09/18 00:20:18;;;;;;;7.90;7.13;;;11.30;99.90;;;12.04;93.80;97932.59;5152319;28;20279;-82
2021/09/18 00:22:51;;;;;;;8.02;7.43;;;11.30;99.90;;;12.08;93.37;97922.63;5144172;28;20303;-81
2021/09/18 00:25:25;;;;;;;7.50;6.95;;;11.40;99.90;;;12.08;93.44;97919.19;5152001;28;20220;-82
2021/09/18 00:27:58;;;;;;;7.57;6.97;;;11.40;99.90;;;12.11;93.23;97921.91;5149828;28;20725;-83
2021/09/18 00:30:32;;;;;;;7.32;6.82;;;11.40;99.90;;;12.11;93.37;97927.91;5151323;28;20200;-82
2021/09/18 00:33:05;;;;;;;7.03;6.53;;;11.40;99.90;;;12.05;93.55;97927.56;5145500;28;20203;-81
2021/09/18 00:35:38;;;;;;;6.97;6.47;;;11.30;99.90;;;12.05;92.89;97926.69;5151793;28;20667;-80
2021/09/18 00:38:12;;;;;;;7.00;6.60;;;11.40;99.90;;;12.09;92.49;97929.47;5150308;28;20267;-81
2021/09/18 00:40:47;;;;;;;6.88;6.45;;;11.40;99.90;;;12.07;92.63;97925.06;5135276;28;20256;-81
2021/09/18 00:43:21;;;;;;;7.32;6.63;;;11.30;99.90;;;12.11;92.18;97927.91;5148404;28;20728;-82
2021/09/18 00:45:54;;;;;;;7.10;6.60;;;11.30;99.90;;;12.10;92.34;97926.16;5147915;28;20295;-81
2021/09/18 00:48:27;;;;;;;8.05;7.35;;;11.30;99.90;;;12.07;92.37;97940.44;5133758;28;20652;-81
2021/09/18 00:51:00;;;;;;;7.10;6.50;;;11.30;99.90;;;12.05;92.20;97930.13;5152990;28;20267;-81
2021/09/18 00:53:34;;;;;;;7.13;6.60;;;11.20;99.90;;;11.99;92.06;97922.13;5157822;28;20646;-83
2021/09/18 00:56:08;;;;;;;6.22;5.75;;;11.20;99.90;;;12.00;91.05;97930.69;5158749;28;20235;-81
2021/09/18 00:58:41;;;;;;;6.22;5.65;;;11.10;99.90;;;11.93;90.79;97922.69;5155481;28;20212;-83
2021/09/18 01:01:14;;;;;;;6.20;5.80;;;11.00;99.90;;;11.88;91.14;97924.13;5155948;28;20207;-82
2021/09/18 01:03:48;;;;;;;6.38;5.78;;;10.90;99.90;;;11.85;90.55;97923.06;5148552;28;20235;-83
2021/09/18 01:06:21;;;;;;;6.70;6.10;;;11.00;99.90;;;11.79;92.71;97925.25;5157389;28;20278;-81
2021/09/18 01:08:58;;;;;;;6.28;5.78;;;11.10;99.90;;;11.72;92.94;97917.25;5151702;28;20244;-82
2021/09/18 01:11:33;;;;;;;6.47;6.07;;;11.00;99.90;;;11.71;92.36;97920.63;5156979;28;20204;-82
2021/09/18 01:14:06;;;;;;;6.00;5.60;;;11.00;99.90;;;11.75;91.70;97925.91;5154689;28;20207;-82
2021/09/18 01:16:40;;;;;;;6.85;6.28;;;11.00;99.90;;;11.69;91.34;97916.22;5150283;28;20231;-81
2021/09/18 01:19:13;;;;;;;6.30;5.68;;;10.90;99.90;;;11.63;90.71;97918.47;5155747;28;20240;-83
2021/09/18 01:21:48;;;;;;;6.57;6.03;;;10.90;99.90;;;11.59;91.31;97917.44;5156579;28;20255;-80
2021/09/18 01:24:22;;;;;;;6.60;6.10;;;10.80;99.90;;;11.53;92.05;97922.19;5153135;28;20200;-80
2021/09/18 01:26:56;;;;;;;6.68;6.18;;;10.80;99.90;;;11.49;92.74;97918.59;5150186;28;20242;-84
2021/09/18 01:29:29;;;;;;;7.28;6.63;;;10.80;99.90;;;11.51;92.13;97921.25;5149383;28;20208;-81
2021/09/18 01:32:03;;;;;;;7.60;7.05;;;10.80;99.90;;;11.54;92.67;97926.53;5155142;28;20204;-81
2021/09/18 01:34:36;;;;;;;6.63;6.18;;;10.90;99.90;;;11.53;91.95;97922.19;5152532;28;20761;-81
2021/09/18 01:37:09;;;;;;;8.18;7.32;;;10.80;99.90;;;11.53;92.45;97918.75;5147940;28;20213;-80
2021/09/18 01:39:44;;;;;;;7.32;6.72;;;10.80;99.90;;;11.52;92.78;97920.44;5154183;28;20215;-81
2021/09/18 01:42:17;;;;;;;7.03;6.43;;;10.80;99.90;;;11.55;91.65;97915.47;5146109;28;20220;-81
2021/09/18 01:44:50;;;;;;;7.38;6.78;;;10.80;99.90;;;11.50;92.03;97927.13;5145626;28;20231;-81
2021/09/18 01:47:23;;;;;;;7.15;6.55;;;10.80;99.90;;;11.50;92.72;97924.59;5152667;28;20203;-81
2021/09/18 01:49:56;;;;;;;7.43;6.93;;;10.80;99.90;;;11.53;92.26;97917.06;5152930;28;20262;-81
2021/09/18 01:52:34;;;;;;;7.50;6.90;;;10.80;99.90;;;11.48;92.25;97913.41;5148378;28;20591;-82
2021/09/18 01:55:11;;;;;;;6.68;6.13;;;10.80;99.90;;;11.48;92.78;97905.72;5153416;28;20596;-81
2021/09/18 01:57:45;;;;;;;7.43;6.75;;;10.80;99.90;;;11.50;92.88;97914.34;5151650;28;20577;-81
2021/09/18 02:00:19;;;;;;;6.78;6.28;;;10.80;99.90;;;11.53;92.40;97913.63;5151382;28;20688;-81
2021/09/18 02:02:52;;;;;;;7.13;6.57;;;10.90;99.90;;;11.55;92.64;97907.81;5152603;28;20210;-81
2021/09/18 02:05:28;;;;;;;7.10;6.47;;;10.80;99.90;;;11.54;92.52;97910.28;5151681;28;20212;-82
2021/09/18 02:08:02;;;;;;;7.07;6.57;;;10.80;99.90;;;11.51;92.59;97905.88;5147038;28;20228;-81
2021/09/18 02:10:37;;;;;;;7.32;6.72;;;10.80;99.90;;;11.46;92.87;97907.31;5152721;28;20192;-81
2021/09/18 02:13:12;;;;;;;7.07;6.50;;;10.70;99.90;;;11.46;92.60;97904.75;5152042;28;20675;-80
2021/09/18 02:15:46;;;;;;;8.05;7.35;;;10.80;99.90;;;11.45;92.78;97908.13;5152693;28;20223;-80
2021/09/18 02:18:19;;;;;;;8.25;7.57;;;10.80;99.90;;;11.39;92.86;97901.00;5145621;28;20193;-80
2021/09/18 02:20:53;;;;;;;7.28;6.68;;;10.70;99.90;;;11.44;92.64;97902.09;5133674;28;20208;-80
2021/09/18 02:23:26;;;;;;;7.13;6.45;;;10.70;99.90;;;11.45;91.99;97906.44;5143755;28;20208;-81
2021/09/18 02:26:01;;;;;;;6.45;6.05;;;10.70;99.90;;;11.50;91.09;97904.09;5149988;28;20224;-82
2021/09/18 02:28:34;;;;;;;7.32;6.80;;;10.60;99.90;;;11.39;90.53;97911.22;5142654;28;20215;-81
2021/09/18 02:31:07;;;;;;;7.03;6.43;;;10.50;99.90;;;11.32;91.03;97904.00;5150218;28;20203;-81
2021/09/18 02:33:40;;;;;;;6.28;5.78;;;10.50;99.90;;;11.26;91.41;97904.53;5149184;28;20204;-82
2021/09/18 02:36:13;;;;;;;6.47;5.97;;;10.50;99.90;;;11.24;91.40;97895.88;5151552;28;20223;-81
2021/09/18 02:38:47;;;;;;;6.55;5.97;;;10.50;99.90;;;11.20;91.80;97901.66;5148185;28;20204;-81
2021/09/18 02:41:21;;;;;;;6.65;6.15;;;10.50;99.90;;;11.18;91.67;97899.78;5143221;28;20205;-81
2021/09/18 02:43:55;;;;;;;6.97;6.30;;;10.50;99.90;;;11.15;91.73;97909.88;5134103;28;20594;-81
2021/09/18 02:46:28;;;;;;;7.63;6.95;;;10.40;99.90;;;11.15;92.32;97909.88;5146374;28;20636;-82
2021/09/18 02:49:01;;;;;;;6.63;6.22;;;10.40;99.90;;;11.16;91.32;97902.28;5143986;28;20203;-82
2021/09/18 02:51:34;;;;;;;7.15;6.65;;;10.40;99.90;;;11.09;91.01;97905.28;5141200;28;20580;-81
2021/09/18 02:54:07;;;;;;;6.78;6.28;;;10.40;99.90;;;11.07;91.49;97906.88;5142374;28;20226;-82
2021/09/18 02:56:42;;;;;;;7.47;6.88;;;10.30;99.90;;;11.00;91.15;97907.34;5154093;28;20222;-82
2021/09/18 02:59:16;;;;;;;6.72;6.30;;;10.20;99.90;;;11.03;92.13;97907.50;5149776;28;20580;-82
2021/09/18 03:01:49;;;;;;;6.82;6.32;;;10.30;99.90;;;11.00;91.51;97904.78;5149899;28;20215;-82
2021/09/18 03:04:22;;;;;;;7.57;6.97;;;10.30;99.90;;;10.95;91.39;97893.41;5153792;28;20207;-83
2021/09/18 03:06:55;;;;;;;7.00;6.43;;;10.20;99.90;;;10.96;91.50;97893.50;5152955;28;20199;-81
2021/09/18 03:09:28;;;;;;;7.70;6.53;;;10.20;99.90;;;10.93;91.98;97890.78;5154982;28;20195;-81
2021/09/18 03:12:03;;;;;;;6.78;6.28;;;10.10;99.90;;;10.90;91.88;97887.16;5148812;28;21524;-81
2021/09/18 03:14:36;;;;;;;6.80;6.30;;;10.10;99.90;;;10.87;91.76;97881.88;5155291;28;20629;-81
2021/09/18 03:17:09;;;;;;;6.93;6.38;;;10.10;99.90;;;10.87;90.98;97886.97;5151875;28;20224;-81
2021/09/18 03:19:42;;;;;;;7.60;7.00;;;10.10;99.90;;;10.89;91.22;97885.41;5149986;28;20251;-81
2021/09/18 03:22:16;;;;;;;6.95;6.45;;;10.10;99.90;;;10.88;91.68;97888.75;5151300;28;20212;-82
2021/09/18 03:24:49;;;;;;;7.20;6.50;;;10.10;99.90;;;10.87;91.17;97881.88;5154110;28;20247;-81
2021/09/18 03:27:23;;;;;;;6.70;6.20;;;10.10;99.90;;;10.82;90.74;97882.50;5154460;28;20200;-82
2021/09/18 03:29:56;;;;;;;6.95;6.32;;;10.10;99.90;;;10.86;91.45;97881.00;5147567;28;20240;-81
2021/09/18 03:32:29;;;;;;;6.63;6.13;;;10.00;99.90;;;10.77;91.44;97889.03;5146681;28;20208;-79
2021/09/18 03:35:04;;;;;;;6.07;5.68;;;10.00;99.90;;;10.77;91.39;97893.25;5154643;28;20263;-81
2021/09/18 03:37:37;;;;;;;6.63;6.15;;;10.00;99.90;;;10.76;91.54;97894.06;5151377;28;20215;-81
2021/09/18 03:40:13;;;;;;;6.80;6.30;;;10.00;99.90;;;10.78;90.58;97898.44;5154138;28;20193;-82
2021/09/18 03:42:48;;;;;;;6.22;5.72;;;10.00;99.90;;;10.73;92.11;97889.66;5134587;28;20394;-80
2021/09/18 03:45:21;;;;;;;6.78;6.28;;;10.00;99.90;;;10.71;91.47;97900.59;5138601;28;20216;-81
2021/09/18 03:47:54;;;;;;;7.93;7.32;;;10.00;99.90;;;10.71;91.49;97895.47;5142272;28;20213;-81
2021/09/18 03:50:27;;;;;;;7.93;7.32;;;9.90;99.90;;;10.58;91.40;97888.75;5149592;28;20204;-82
2021/09/18 03:53:00;;;;;;;8.70;8.02;;;9.80;99.90;;;10.52;91.09;97888.41;5152156;28;20258;-83
2021/09/18 03:55:34;;;;;;;6.75;6.18;;;9.80;99.90;;;10.53;91.54;97887.59;5155358;28;20706;-82
2021/09/18 03:58:08;;;;;;;6.68;6.18;;;9.80;99.90;;;10.55;92.55;97883.47;5155828;28;20223;-80
2021/09/18 04:00:42;;;;;;;7.00;6.40;;;9.80;99.90;;;10.57;92.43;97887.88;5149916;28;20203;-82
2021/09/18 04:03:19;;;;;;;7.00;6.40;;;9.90;99.90;;;10.58;92.69;97893.88;5146168;28;20203;-79
2021/09/18 04:05:52;;;;;;;7.55;7.05;;;9.90;99.90;;;10.51;92.29;97896.88;5150924;28;20219;-82
2021/09/18 04:08:25;;;;;;;6.93;6.43;;;9.70;99.90;;;10.33;92.24;97896.69;5152929;28;20200;-80
2021/09/18 04:10:59;;;;;;;6.85;6.30;;;9.60;99.90;;;10.34;91.81;97898.47;5154729;28;20207;-80
2021/09/18 04:13:33;;;;;;;7.07;6.47;;;9.60;99.90;;;10.33;91.81;97897.59;5155090;28;20204;-81
2021/09/18 04:16:06;;;;;;;7.68;6.97;;;9.60;99.90;;;10.27;92.22;97894.69;5155984;28;20219;-79
2021/09/18 04:18:40;;;;;;;7.80;7.20;;;9.50;99.90;;;10.24;92.24;97901.22;5153496;28;20200;-80
2021/09/18 04:21:13;;;;;;;7.38;6.45;;;9.50;99.90;;;10.21;92.17;97901.03;5151287;28;20284;-81
2021/09/18 04:23:46;;;;;;;7.28;6.68;;;9.50;99.90;;;10.24;92.32;97904.66;5145755;28;20215;-82
2021/09/18 04:26:19;;;;;;;7.20;6.60;;;9.60;99.90;;;10.27;92.30;97902.34;5155617;28;20615;-81
2021/09/18 04:28:55;;;;;;;7.40;6.90;;;9.60;99.90;;;10.28;92.28;97914.31;5151753;28;20214;-82
2021/09/18 04:31:29;;;;;;;6.88;6.20;;;9.60;99.90;;;10.32;92.11;97910.25;5152890;28;20574;-81
2021/09/18 04:34:02;;;;;;;8.27;7.68;;;9.60;99.90;;;10.31;92.18;97904.28;5146764;28;20690;-82
2021/09/18 04:36:35;;;;;;;7.47;6.88;;;9.60;99.90;;;10.28;92.23;97919.41;5152729;28;20266;-81
2021/09/18 04:39:08;;;;;;;7.53;6.82;;;9.60;99.90;;;10.23;93.18;97918.22;5154019;28;20254;-82
2021/09/18 04:41:41;;;;;;;7.43;6.82;;;9.50;99.90;;;10.22;92.06;97916.47;5153636;28;20251;-80
2021/09/18 04:44:16;;;;;;;7.65;6.95;;;9.50;99.90;;;10.22;92.29;97924.13;5153876;28;20207;-82
2021/09/18 04:46:49;;;;;;;6.93;6.43;;;9.50;99.90;;;10.19;92.14;97913.75;5153506;28;20208;-81
2021/09/18 04:49:22;;;;;;;7.50;6.90;;;9.50;99.90;;;10.20;92.68;97915.50;5152666;28;20211;-81
2021/09/18 04:51:55;;;;;;;7.97;7.18;;;9.60;99.90;;;10.23;92.39;97920.78;5146650;28;20204;-82
2021/09/18 04:54:29;;;;;;;8.32;7.63;;;9.60;99.90;;;10.28;91.88;97927.09;5151715;28;20586;-82
2021/09/18 04:57:02;;;;;;;7.55;6.95;;;9.60;99.90;;;10.28;92.91;97924.53;5151931;28;20232;-81
2021/09/18 04:59:36;;;;;;;6.93;6.43;;;9.60;99.90;;;10.29;93.03;97933.06;5156071;28;20262;-81
2021/09/18 05:02:09;;;;;;;7.30;6.70;;;9.60;99.90;;;10.27;92.35;97932.09;5152781;28;20286;-83
2021/09/18 05:04:43;;;;;;;8.48;6.50;;;9.50;99.90;;;10.23;91.94;97938.66;5155990;28;20239;-80
2021/09/18 05:07:16;;;;;;;7.72;7.03;;;9.40;99.90;;;10.14;92.28;97945.78;5151384;28;20209;-82
2021/09/18 05:09:50;;;;;;;7.78;6.95;;;9.40;99.90;;;10.13;93.02;97938.91;5156764;28;20207;-81
2021/09/18 05:12:23;;;;;;;7.38;6.72;;;9.40;99.90;;;10.11;92.89;97945.59;5157169;28;20313;-82
2021/09/18 05:14:57;;;;;;;7.07;6.57;;;9.40;99.90;;;10.14;92.28;97946.66;5157246;28;20224;-80
2021/09/18 05:17:31;;;;;;;7.90;6.72;;;9.40;99.90;;;10.10;92.35;97941.25;5154240;28;20219;-84
2021/09/18 05:20:06;;;;;;;7.68;6.97;;;9.40;99.90;;;10.03;92.68;97945.13;5148925;28;20234;-80
2021/09/18 05:22:39;;;;;;;7.63;6.93;;;9.30;99.90;;;10.08;93.10;97945.41;5146716;28;20271;-81
2021/09/18 05:25:12;;;;;;;7.53;6.93;;;9.30;99.90;;;10.18;92.76;97944.28;5143020;28;20235;-80
2021/09/18 05:27:46;;;;;;;7.53;6.75;;;9.40;99.90;;;10.11;91.85;97946.47;5148777;28;20570;-83
2021/09/18 05:30:20;;;;;;;7.95;7.28;;;9.40;99.90;;;10.15;92.15;97947.53;5148675;28;20263;-80
2021/09/18 05:32:54;;;;;;;8.73;7.95;;;9.40;99.90;;;10.18;91.76;97950.25;5154443;28;20205;-82
2021/09/18 05:35:27;;;;;;;8.80;8.10;;;9.40;99.90;;;10.17;92.79;97951.06;5150116;28;20259;-81
2021/09/18 05:38:00;;;;;;;8.38;7.63;;;9.50;99.90;;;10.18;93.76;97955.38;5146362;28;20270;-84
2021/09/18 05:40:33;;;;;;;8.10;7.30;;;9.50;99.90;;;10.22;93.51;97959.91;5146442;28;20216;-81
2021/09/18 05:43:06;;;;;;;7.97;7.28;;;9.60;99.90;;;10.28;93.19;97957.72;5150165;28;20204;-81
2021/09/18 05:45:41;;;;;;;7.85;7.15;;;9.60;99.90;;;10.46;91.83;97957.06;5151046;28;20282;-81
2021/09/18 05:48:14;;;;;;;8.80;7.90;;;9.70;99.90;;;10.59;92.32;97957.88;5151699;28;20196;-80
2021/09/18 05:50:47;;;;;;;8.13;7.35;;;9.90;99.90;;;10.72;91.10;97962.00;5144637;28;20395;-82
2021/09/18 05:53:21;;;;;;;7.85;7.25;;;10.00;99.90;;;10.90;89.36;97953.63;5135896;28;20615;-81
2021/09/18 05:55:54;;;;;;;7.90;7.20;;;10.10;99.90;;;11.02;89.34;97955.22;5138453;28;20356;-81
2021/09/18 05:58:27;;;;;;;8.07;7.38;;;10.20;99.90;;;11.13;88.40;97948.16;5144840;28;20263;-82
2021/09/18 06:01:01;;;;;;;8.00;7.30;;;10.30;99.90;;;11.17;88.90;97939.84;5147632;28;20639;-82
2021/09/18 06:03:35;;;;;;;8.13;7.50;;;10.50;99.90;;;11.32;88.92;97950.06;5139534;28;20233;-81
2021/09/18 06:06:09;;;;;;;7.97;7.28;;;10.60;99.90;;;11.39;88.42;97948.69;5136011;28;20781;-81
2021/09/18 06:08:42;;;;;;;7.93;7.25;;;10.70;99.90;;;11.43;87.85;97953.22;5146774;28;20212;-80
2021/09/18 06:11:16;;;;;;;7.63;7.03;;;10.70;99.90;;;11.76;85.75;97948.16;5148015;28;20632;-80
2021/09/18 06:13:49;;;;;;;7.13;6.45;;;10.90;99.90;;;12.01;84.43;97951.25;5147421;28;20212;-82
2021/09/18 06:16:24;;;;;;;8.15;6.70;;;11.20;99.90;;;12.27;84.24;97956.88;5147310;28;20251;-81
2021/09/18 06:18:57;;;;;;;6.63;6.13;;;11.30;99.90;;;12.68;82.42;97959.00;5146994;28;20222;-80
2021/09/18 06:21:30;;;;;;;6.97;6.38;;;11.50;99.90;;;13.20;79.44;97958.13;5137885;28;21325;-81
2021/09/18 06:24:09;;;;;;;6.80;6.20;;;11.70;99.90;;;13.52;77.49;97963.13;5145951;28;20238;-80
2021/09/18 06:26:45;;;;;;;6.28;5.78;;;11.90;99.90;;;13.78;76.45;97954.88;5145075;28;20699;-80
2021/09/18 06:29:18;;;;;;;6.72;6.13;;;12.20;99.90;;;14.05;75.24;97965.50;5144003;28;20204;-78
2021/09/18 06:31:52;;;;;;;6.22;5.72;;;12.40;99.90;;;14.35;74.18;97964.31;5141836;28;20200;-80
2021/09/18 06:34:26;;;;;;;6.18;5.57;;;12.70;99.90;;;14.56;72.91;97966.09;5144537;28;20681;-80
2021/09/18 06:36:59;;;;;;;6.68;6.13;;;12.90;99.90;;;14.96;72.53;97963.50;5140806;28;20204;-80
2021/09/18 06:39:33;;;;;;;6.82;6.32;;;13.20;99.90;;;15.40;69.98;97958.41;5145809;28;20259;-80
2021/09/18 06:42:06;;;;;;;6.10;5.60;;;13.50;99.90;;;15.69;69.47;97957.88;5143313;28;20207;-81
2021/09/18 06:44:41;;;;;;;6.30;5.72;;;13.70;99.90;;;16.12;67.34;97959.50;5147278;28;20247;-80
2021/09/18 06:47:15;;;;;;;6.05;5.65;;;13.90;99.90;;;16.30;66.83;97960.97;5143892;28;20266;-80
2021/09/18 06:49:48;;;;;;;6.05;5.65;;;14.00;99.90;;;16.88;65.38;97952.72;5136121;28;20203;-80
2021/09/18 06:52:21;;;;;;;6.15;5.45;;;14.40;99.90;;;17.31;63.05;97961.88;5142343;28;20637;-80
2021/09/18 06:54:54;;;;;;;5.88;5.38;;;14.60;99.90;;;17.52;62.74;97956.53;5143752;28;21811;-81
2021/09/18 06:57:28;;;;;;;6.97;6.38;;;14.80;99.90;;;17.73;60.74;97958.88;5144888;28;20204;-82
2021/09/18 07:00:01;;;;;;;6.55;5.95;;;14.90;99.90;;;18.12;61.11;97958.34;5137742;28;20591;-80
2021/09/18 07:02:35;;;;;;;6.13;5.53;;;15.00;99.90;;;17.89;61.84;97958.56;5146828;28;20207;-82
2021/09/18 07:05:10;;;;;;;6.10;5.60;;;15.30;99.90;;;17.87;61.32;97960.22;5146396;28;20223;-81
2021/09/18 07:07:45;;;;;;;6.03;5.60;;;15.50;99.90;;;17.72;62.74;97955.44;5144129;28;20211;-83
2021/09/18 07:10:18;;;;;;;6.10;5.63;;;15.50;99.90;;;17.65;63.55;97953.47;5147420;28;20203;-80
2021/09/18 07:12:51;;;;;;;6.78;6.10;;;15.60;99.90;;;17.62;62.96;97957.69;5149949;28;20592;-81
2021/09/18 07:15:24;;;;;;;6.75;6.15;;;15.80;99.90;;;17.74;63.55;97960.63;5151667;28;20621;-81
2021/09/18 07:17:59;;;;;;;6.30;5.75;;;15.80;99.90;;;17.75;63.71;97955.53;5132384;28;20224;-81
2021/09/18 07:20:32;;;;;;;6.72;6.13;;;15.90;99.90;;;17.70;64.19;97956.22;5145783;28;20249;-80
2021/09/18 07:23:06;;;;;;;7.53;6.35;;;16.10;99.90;;;17.88;63.75;97949.03;5147714;28;20204;-80
2021/09/18 07:25:39;;;;;;;6.53;5.90;;;16.30;99.90;;;18.09;62.86;97950.50;5148043;28;20223;-80
2021/09/18 07:28:12;;;;;;;6.47;5.97;;;16.50;99.90;;;18.11;63.11;97956.59;5145905;28;20247;-80
2021/09/18 07:30:45;;;;;;;6.47;5.97;;;16.50;99.90;;;17.83;64.73;97955.78;5148838;28;20335;-80
2021/09/18 07:33:20;;;;;;;6.10;5.70;;;16.40;99.90;;;18.02;64.27;97955.47;5150848;28;20204;-80
2021/09/18 07:35:53;;;;;;;6.95;6.25;;;16.50;99.90;;;18.36;62.98;97953.00;5152065;28;20235;-81
2021/09/18 07:38:26;;;;;;;7.10;6.55;;;16.80;99.90;;;18.51;62.89;97957.72;5148007;28;20678;-81
2021/09/18 07:40:59;;;;;;;7.00;6.40;;;17.00;99.90;;;18.59;62.66;97956.22;5145865;28;20204;-81
2021/09/18 07:43:32;;;;;;;6.88;6.38;;;17.20;99.90;;;18.72;62.54;97950.53;5143850;28;20215;-80
2021/09/18 07:46:05;;;;;;;6.68;6.10;;;17.30;99.90;;;18.77;61.86;97954.16;5146478;28;20226;-79
2021/09/18 07:48:40;;;;;;;7.22;6.63;;;17.40;99.90;;;18.88;61.74;97951.81;5144670;28;20204;-80
2021/09/18 07:51:13;;;;;;;7.07;6.53;;;17.60;99.90;;;19.02;61.61;97952.19;5140401;28;20203;-81
2021/09/18 07:53:46;;;;;;;6.93;6.43;;;17.80;99.90;;;19.12;61.32;97957.63;5142399;28;20701;-81
2021/09/18 07:56:19;;;;;;;7.93;7.22;;;17.90;99.90;;;19.05;61.69;97950.53;5147205;28;20224;-81
2021/09/18 07:58:54;;;;;;;7.20;6.60;;;17.90;99.90;;;19.26;61.42;97950.22;5146123;28;20270;-79
2021/09/18 08:01:30;;;;;;;7.35;6.75;;;18.10;99.90;;;19.42;61.03;97951.44;5147802;28;20235;-80
2021/09/18 08:04:05;;;;;;;9.02;8.23;;;18.20;99.90;;;19.44;61.10;97954.06;5147122;28;20211;-81
2021/09/18 08:06:40;;;;;;;6.97;6.47;;;18.30;99.90;;;19.29;61.89;97952.88;5135888;28;20487;-80
2021/09/18 08:09:13;;;;;;;7.72;7.13;;;18.20;99.90;;;19.50;62.08;97954.22;5146776;28;20199;-80
2021/09/18 08:11:48;;;;;;;7.13;6.60;;;18.40;99.90;;;19.66;61.19;97951.19;5146045;28;20594;-80
2021/09/18 08:14:21;;;;;;;7.30;6.70;;;18.60;99.90;;;19.87;60.72;97947.31;5147489;28;20204;-81
2021/09/18 08:16:55;;;;;;;7.63;7.03;;;18.80;99.90;;;19.89;60.66;97948.22;5142254;28;20611;-82
2021/09/18 08:19:30;;;;;;;7.80;7.10;;;18.90;99.90;;;20.02;60.04;97955.41;5146354;28;20220;-85
2021/09/18 08:22:04;;;;;;;8.07;7.47;;;19.10;99.90;;;20.12;59.92;97941.78;5139028;28;20222;-82
2021/09/18 08:24:37;;;;;;;7.22;6.63;;;19.20;99.90;;;20.22;59.76;97948.03;5141771;28;20239;-84
2021/09/18 08:27:11;;;;;;;7.93;7.22;;;19.20;99.90;;;20.38;59.47;97951.81;5146779;28;20204;-83
2021/09/18 08:29:44;;;;;;;7.30;6.70;;;19.40;99.90;;;20.48;59.38;97953.75;5143982;28;20199;-84
2021/09/18 08:32:17;;;;;;;7.55;6.93;;;19.50;99.90;;;20.40;59.88;97948.41;5147378;28;20263;-83
2021/09/18 08:34:51;;;;;;;7.60;6.80;;;19.50;99.90;;;20.39;60.20;97944.06;5146420;28;20223;-82
2021/09/18 08:37:25;;;;;;;7.47;6.85;;;19.60;99.90;;;20.57;59.87;97945.28;5142649;28;20710;-82
2021/09/18 08:39:58;;;;;;;7.78;7.18;;;19.70;99.90;;;20.73;59.61;97941.25;5146159;28;20727;-85
2021/09/18 08:42:31;;;;;;;7.32;6.72;;;19.80;99.90;;;20.79;59.87;97941.38;5145792;28;20215;-82
2021/09/18 08:45:08;;;;;;;9.60;8.70;;;19.90;99.90;;;20.90;59.30;97947.63;5145321;28;20227;-83
2021/09/18 08:47:43;;;;;;;7.70;7.10;;;20.10;99.90;;;20.97;58.77;97943.41;5141658;28;20207;-82
2021/09/18 08:50:21;;;;;;;8.30;7.60;;;20.20;99.90;;;21.00;58.36;97946.94;5144641;28;20195;-84
2021/09/18 08:52:55;;;;;;;7.18;6.57;;;20.10;99.90;;;21.19;58.83;97944.66;5140988;28;20210;-82
2021/09/18 08:55:29;;;;;;;8.00;7.38;;;20.40;99.90;;;21.41;58.05;97944.19;5142311;28;20215;-83
2021/09/18 08:58:02;;;;;;;9.52;8.63;;;20.60;99.90;;;21.46;57.65;97952.94;5139094;28;20211;-82
2021/09/18 09:00:48;;;;;;;8.73;8.02;;;20.80;99.90;;;21.66;56.79;97949.75;5142422;28;20703;-83
2021/09/18 09:03:29;;;;;;;8.50;7.80;;;20.80;99.90;;;21.54;57.53;97948.69;5140177;28;20254;-85
2021/09/18 09:06:13;;;;;;;8.70;8.00;;;20.70;99.90;;;21.62;57.10;97940.16;5139368;28;20730;-82
2021/09/18 09:08:57;;;;;;;7.38;6.88;;;20.80;99.90;;;21.76;56.93;97939.50;5147454;28;20215;-83
2021/09/18 09:11:30;;;;;;;7.88;7.18;;;20.90;99.90;;;21.72;56.21;97939.41;5146636;28;20200;-85
2021/09/18 09:14:08;;;;;;;7.07;6.50;;;20.90;99.90;;;21.75;57.30;97934.28;5147030;28;20200;-82
2021/09/18 09:16:58;;;;;;;7.10;6.50;;;21.00;99.90;;;21.74;55.71;97935.13;5140696;28;20306;-82
2021/09/18 09:19:39;;;;;;;6.53;6.03;;;21.10;99.90;;;21.84;55.21;97933.53;5142449;28;20247;-84
2021/09/18 09:22:13;;;;;;;5.60;5.20;;;21.20;99.90;;;21.90;53.50;97928.41;5139376;28;20291;-82
2021/09/18 09:24:49;;;;;;;5.18;4.78;;;21.20;99.90;;;21.79;52.14;97931.72;5139478;28;20242;-82
2021/09/18 09:27:22;;;;;;;5.68;5.18;;;21.10;99.90;;;21.86;52.73;97932.66;5143660;28;20294;-82
2021/09/18 09:29:57;;;;;;;6.25;5.68;;;21.20;99.90;;;21.99;52.66;97913.78;5142031;28;20319;-85
2021/09/18 09:32:33;;;;;;;6.60;6.10;;;21.30;99.90;;;21.86;53.64;97921.41;5143262;28;20202;-83
2021/09/18 09:35:10;;;;;;;5.78;5.25;;;21.20;99.90;;;21.85;54.66;97914.44;5146162;28;20971;-81
2021/09/18 09:37:54;;;;;;;5.25;4.88;;;21.30;99.90;;;22.22;51.24;97908.00;5142802;28;20290;-82
2021/09/18 09:40:38;;;;;;;5.47;5.05;;;21.50;99.90;;;22.23;52.08;97907.13;5145988;28;20565;-82
2021/09/18 09:43:15;;;;;;;5.38;4.95;;;21.70;99.90;;;22.19;52.75;97903.63;5144769;28;20287;-80
2021/09/18 09:45:48;;;;;;;4.35;4.05;;;21.60;99.90;;;22.10;50.66;97906.09;5142354;28;20234;-82
2021/09/18 09:48:23;;;;;;;3.80;3.50;;;21.50;99.00;;;22.42;47.90;97901.28;5143908;28;20292;-82
2021/09/18 09:51:01;;;;;;;3.53;3.33;;;21.80;97.20;;;22.59;46.49;97911.03;5138720;28;20325;-80
2021/09/18 09:53:37;;;;;;;4.00;3.70;;;22.00;96.20;;;22.38;45.61;97901.25;5141724;28;20239;-81
2021/09/18 09:56:24;;;;;;;2.97;2.78;;;21.70;95.50;;;22.49;44.78;97905.72;5140610;28;20227;-81
2021/09/18 09:58:58;;;;;;;2.50;2.40;;;21.80;95.20;;;22.54;45.93;97903.16;5143057;28;20212;-82
2021/09/18 10:01:32;;;;;;;4.07;3.63;;;21.90;95.70;;;22.58;47.83;97906.69;5143954;28;20207;-81
2021/09/18 10:04:05;;;;;;;3.90;3.60;;;22.00;96.90;;;22.65;48.02;97911.94;5142008;28;20224;-81
2021/09/18 10:06:38;;;;;;;3.95;3.65;;;22.10;96.80;;;22.67;48.09;97909.38;5144991;28;20655;-81
2021/09/18 10:09:15;;;;;;;3.65;3.45;;;22.00;96.70;;;22.67;48.17;97905.03;5140428;28;20197;-81
2021/09/18 10:11:49;;;;;;;3.63;3.33;;;22.10;96.80;;;22.75;47.79;97906.81;5139866;28;20668;-82
2021/09/18 10:14:25;;;;;;;3.70;3.17;;;22.20;96.50;;;22.80;47.08;97895.56;5142283;28;20220;-81
2021/09/18 10:17:00;;;;;;;2.75;2.55;;;22.30;96.10;;;22.82;46.04;97896.47;5136312;28;20209;-84
2021/09/18 10:19:55;;;;;;;3.80;3.33;;;22.20;95.30;;;22.81;46.26;97899.09;5139451;28;20204;-82
2021/09/18 10:25:25;;;;;;;2.70;2.60;;;22.10;96.00;;;22.90;46.87;97894.81;5143758;28;20786;-82
2021/09/18 10:28:04;;;;;;;2.75;2.65;;;22.20;95.60;;;23.04;44.71;97886.28;5144511;28;20211;-82
2021/09/18 10:30:40;;;;;;;3.10;2.90;;;22.40;93.80;;;23.26;44.41;97888.16;5142232;28;20219;-83
2021/09/18 10:33:42;;;;;;;3.13;2.92;;;22.50;94.20;;;23.42;42.60;97889.16;5144862;28;20326;-82
2021/09/18 10:36:17;;;;;;;3.10;2.90;;;22.70;93.00;;;23.31;43.86;97889.06;5090753;28;20219;-83
2021/09/18 10:39:05;;;;;;;3.05;2.85;;;22.70;93.70;;;23.18;44.50;97887.25;5144496;28;20213;-82
2021/09/18 10:41:44;;;;;;;3.28;3.08;;;22.50;93.90;;;23.21;44.04;97882.06;5140801;28;20253;-82
2021/09/18 10:44:21;;;;;;;3.30;3.10;;;22.50;93.30;;;23.02;44.36;97881.03;5137339;28;20263;-82
2021/09/18 10:46:58;;;;;;;3.30;3.00;;;22.30;94.10;;;22.98;44.48;97879.28;5142292;28;20207;-83
2021/09/18 10:49:37;;;;;;;3.10;2.90;;;22.10;94.00;;;22.94;45.41;97883.53;5140105;28;20222;-82
2021/09/18 10:52:25;;;;;;;3.38;3.08;;;22.20;94.70;;;23.16;44.40;97873.31;5138623;28;20287;-82
2021/09/18 10:55:15;;;;;;;4.50;4.20;;;22.40;93.90;;;23.19;44.17;97870.75;5133895;28;20291;-80